createdAt,value
2022-11-06T00:02:13.662Z,17.40
2022-11-06T00:07:25.731Z,17.70
2022-11-06T00:12:32.887Z,17.90
2022-11-06T00:17:40.828Z,20.80
2022-11-06T00:22:48.599Z,20.70
2022-11-06T00:27:56.510Z,21.90
2022-11-06T00:33:04.143Z,20.90
2022-11-06T00:38:11.404Z,19.50
2022-11-06T00:43:18.824Z,22.40
2022-11-06T00:48:26.058Z,24.00
2022-11-06T00:53:33.440Z,24.20
2022-11-06T00:58:41.664Z,21.70
2022-11-06T01:03:54.682Z,27.40
2022-11-06T01:09:02.576Z,23.50
2022-11-06T01:14:12.421Z,26.20
2022-11-06T01:19:21.196Z,22.90
2022-11-06T01:24:31.885Z,20.40
2022-11-06T01:29:39.687Z,20.20
2022-11-06T01:34:47.101Z,18.90
2022-11-06T01:39:54.400Z,23.30
2022-11-06T01:45:28.522Z,20.40
2022-11-06T01:50:36.180Z,25.80
2022-11-06T01:55:48.001Z,23.90
2022-11-06T02:00:55.593Z,24.40
2022-11-06T02:06:03.580Z,21.20
2022-11-06T02:11:11.367Z,23.90
2022-11-06T02:16:23.470Z,20.10
2022-11-06T02:21:59.684Z,23.80
2022-11-06T02:27:12.234Z,24.60
2022-11-06T02:32:25.659Z,21.60
2022-11-06T02:47:27.796Z,24.00
2022-11-06T02:52:38.476Z,20.00
2022-11-06T02:57:50.281Z,24.10
2022-11-06T03:03:01.846Z,24.10
2022-11-06T03:08:15.791Z,23.40
2022-11-06T03:13:28.776Z,28.20
2022-11-06T03:18:44.480Z,26.50
2022-11-06T03:23:56.265Z,25.50
2022-11-06T03:29:10.769Z,27.70
2022-11-06T03:34:26.556Z,20.60
2022-11-06T03:39:37.755Z,23.10
2022-11-06T03:44:49.971Z,27.50
2022-11-06T03:50:02.603Z,25.80
2022-11-06T03:55:14.722Z,25.10
2022-11-06T04:00:23.384Z,24.00
2022-11-06T04:05:30.860Z,26.30
2022-11-06T04:10:58.305Z,23.00
2022-11-06T04:16:06.893Z,24.60
2022-11-06T04:21:26.104Z,21.70
2022-11-06T04:26:39.873Z,25.40
2022-11-06T04:31:56.889Z,25.10
2022-11-06T04:37:10.687Z,21.70
2022-11-06T04:42:29.957Z,29.00
2022-11-06T04:47:40.038Z,26.50
2022-11-06T04:52:48.872Z,24.50
2022-11-06T04:57:56.011Z,25.60
2022-11-06T05:03:03.410Z,24.00
2022-11-06T05:08:16.594Z,22.10
2022-11-06T05:13:23.922Z,23.50
2022-11-06T05:23:38.685Z,21.60
2022-11-06T05:28:45.722Z,19.10
2022-11-06T05:38:58.275Z,21.80
2022-11-06T05:44:05.678Z,21.20
2022-11-06T05:49:13.198Z,22.20
2022-11-06T05:54:20.029Z,23.30
2022-11-06T05:59:26.966Z,17.40
2022-11-06T06:04:34.060Z,17.10
2022-11-06T06:14:50.274Z,17.30
2022-11-06T06:19:58.063Z,22.60
2022-11-06T06:25:10.407Z,21.10
2022-11-06T06:30:23.278Z,20.80
2022-11-06T06:35:30.384Z,17.80
2022-11-06T06:40:37.370Z,19.00
2022-11-06T06:45:44.703Z,17.00
2022-11-06T06:50:52.076Z,18.90
2022-11-06T06:56:01.967Z,18.30
2022-11-06T07:01:11.310Z,14.90
2022-11-06T07:06:21.183Z,18.10
2022-11-06T07:11:28.089Z,16.10
2022-11-06T07:16:35.155Z,18.20
2022-11-06T07:21:42.456Z,17.20
2022-11-06T07:26:50.088Z,19.90
2022-11-06T07:31:57.205Z,15.10
2022-11-06T07:42:14.728Z,11.80
2022-11-06T07:52:27.570Z,16.40
2022-11-06T07:57:38.872Z,19.30
2022-11-06T08:02:45.920Z,18.70
2022-11-06T08:07:57.089Z,21.00
2022-11-06T08:13:04.590Z,15.70
2022-11-06T08:18:13.437Z,16.40
2022-11-06T08:23:21.333Z,15.00
2022-11-06T08:28:30.292Z,19.80
2022-11-06T08:33:38.872Z,18.50
2022-11-06T08:38:48.435Z,17.50
2022-11-06T08:43:55.535Z,15.50
2022-11-06T08:49:02.561Z,20.50
2022-11-06T08:54:11.222Z,19.40
2022-11-06T08:59:19.319Z,21.40
2022-11-06T09:04:26.720Z,19.70
2022-11-06T09:09:33.727Z,15.60
2022-11-06T09:14:41.320Z,16.20
2022-11-06T09:19:48.514Z,18.10
2022-11-06T09:25:03.773Z,25.90
2022-11-06T09:30:14.609Z,17.70
2022-11-06T09:35:22.943Z,22.90
2022-11-06T09:40:35.239Z,15.70
2022-11-06T09:45:43.563Z,21.50
2022-11-06T09:50:57.833Z,19.90
2022-11-06T09:56:06.641Z,19.80
2022-11-06T10:01:24.615Z,20.50
2022-11-06T10:06:35.790Z,21.70
2022-11-06T10:11:59.378Z,21.70
2022-11-06T10:17:19.657Z,19.70
2022-11-06T10:22:33.368Z,22.80
2022-11-06T10:27:43.722Z,15.80
2022-11-06T10:33:13.264Z,17.30
2022-11-06T10:38:25.073Z,13.70
2022-11-06T10:43:36.502Z,10.10
2022-11-06T10:48:48.609Z,18.10
2022-11-06T10:54:06.485Z,16.30
2022-11-06T10:59:13.630Z,16.40
2022-11-06T11:04:20.781Z,21.10
2022-11-06T11:09:32.766Z,15.30
2022-11-06T11:14:39.823Z,20.30
2022-11-06T11:19:46.902Z,17.70
2022-11-06T11:30:26.360Z,18.60
2022-11-06T11:35:35.775Z,17.40
2022-11-06T11:40:43.614Z,18.40
2022-11-06T11:46:05.377Z,18.20
2022-11-06T11:51:25.582Z,17.00
2022-11-06T11:56:58.282Z,16.50
2022-11-06T12:02:05.403Z,18.30
2022-11-06T12:07:32.608Z,19.70
2022-11-06T12:12:40.062Z,16.30
2022-11-06T12:17:50.624Z,17.20
2022-11-06T12:22:59.854Z,14.30
2022-11-06T12:28:14.517Z,16.80
2022-11-06T12:33:59.652Z,12.70
2022-11-06T12:38:57.250Z,21.00
2022-11-06T12:44:05.435Z,18.50
2022-11-06T12:49:35.332Z,19.10
2022-11-06T12:54:57.982Z,16.70
2022-11-06T13:00:11.175Z,24.70
2022-11-06T13:05:22.017Z,16.70
2022-11-06T13:10:37.996Z,18.90
2022-11-06T13:15:54.549Z,17.70
2022-11-06T13:21:08.546Z,21.30
2022-11-06T13:26:24.247Z,17.80
2022-11-06T13:31:37.714Z,20.10
2022-11-06T13:36:45.432Z,17.60
2022-11-06T13:41:53.714Z,20.20
2022-11-06T13:47:09.892Z,15.70
2022-11-06T13:52:22.989Z,16.40
2022-11-06T13:57:59.344Z,17.10
2022-11-06T14:03:42.992Z,12.30
2022-11-06T14:08:53.451Z,15.60
2022-11-06T14:14:03.819Z,18.00
2022-11-06T14:19:15.780Z,15.00
2022-11-06T14:24:43.525Z,13.40
2022-11-06T14:30:02.434Z,14.00
2022-11-06T14:35:51.799Z,13.00
2022-11-06T14:40:59.340Z,13.60
2022-11-06T14:46:09.138Z,11.30
2022-11-06T14:51:17.310Z,9.20
2022-11-06T14:56:27.639Z,9.60
2022-11-06T15:01:37.289Z,11.10
2022-11-06T15:06:48.403Z,12.50
2022-11-06T15:11:58.666Z,10.90
2022-11-06T15:17:12.721Z,8.30
2022-11-06T15:22:26.331Z,11.10
2022-11-06T15:27:43.040Z,9.70
2022-11-06T15:32:53.996Z,10.60
2022-11-06T15:38:08.499Z,11.10
2022-11-06T15:43:26.195Z,11.10
2022-11-06T15:48:33.738Z,10.90
2022-11-06T15:53:42.896Z,10.00
2022-11-06T15:59:08.917Z,15.50
2022-11-06T16:04:20.672Z,14.50
2022-11-06T16:09:28.973Z,13.90
2022-11-06T16:14:41.869Z,11.10
2022-11-06T16:19:51.881Z,10.70
2022-11-06T16:25:03.104Z,10.80
2022-11-06T16:30:25.468Z,14.30
2022-11-06T16:35:35.727Z,11.20
2022-11-06T16:40:55.942Z,13.30
2022-11-06T16:46:08.042Z,15.90
2022-11-06T16:51:30.200Z,16.80
2022-11-06T16:56:37.822Z,14.00
2022-11-06T17:01:48.410Z,16.80
2022-11-06T17:06:57.523Z,18.40
2022-11-06T17:12:11.421Z,18.40
2022-11-06T17:17:28.493Z,15.60
2022-11-06T17:22:35.526Z,15.90
2022-11-06T17:32:48.191Z,16.30
2022-11-06T17:37:55.701Z,18.60
2022-11-06T17:43:02.750Z,15.20
2022-11-06T17:48:10.617Z,16.20
2022-11-06T17:53:17.903Z,20.60
2022-11-06T17:58:25.321Z,20.00
2022-11-06T18:03:36.710Z,19.70
2022-11-06T18:08:44.721Z,16.60
2022-11-06T18:13:51.934Z,17.30
2022-11-06T18:18:59.569Z,20.20
2022-11-06T18:24:08.436Z,21.60
2022-11-06T18:29:16.542Z,22.60
2022-11-06T18:34:24.123Z,21.90
2022-11-06T18:39:31.305Z,23.70
2022-11-06T18:44:41.582Z,26.40
2022-11-06T18:49:48.579Z,24.90
2022-11-06T18:55:00.691Z,22.30
2022-11-06T19:00:13.470Z,22.10
2022-11-06T19:05:22.473Z,21.90
2022-11-06T19:10:31.324Z,24.40
2022-11-06T19:15:40.040Z,34.70
2022-11-06T19:20:47.352Z,27.70
2022-11-06T19:26:04.532Z,26.00
2022-11-06T19:31:29.431Z,25.90
2022-11-06T19:36:37.212Z,31.00
2022-11-06T19:41:44.846Z,33.50
2022-11-06T19:46:53.186Z,29.10
2022-11-06T19:52:41.397Z,34.00
2022-11-06T19:57:30.517Z,28.20
2022-11-06T20:02:38.064Z,34.70
2022-11-06T20:07:45.599Z,32.00
2022-11-06T20:12:53.179Z,33.20
2022-11-06T20:18:00.578Z,30.40
2022-11-06T20:23:07.953Z,34.20
2022-11-06T20:28:15.210Z,29.10
2022-11-06T20:33:23.032Z,28.50
2022-11-06T20:38:30.437Z,33.80
2022-11-06T20:43:37.736Z,36.20
2022-11-06T20:48:46.096Z,44.20
2022-11-06T20:53:54.034Z,39.50
2022-11-06T20:59:01.194Z,42.00
2022-11-06T21:04:08.573Z,41.50
2022-11-06T21:09:17.313Z,44.60
2022-11-06T21:14:25.192Z,42.80
2022-11-06T21:19:33.350Z,41.40
2022-11-06T21:24:41.475Z,41.90
2022-11-06T21:29:48.474Z,41.00
2022-11-06T21:40:01.840Z,44.30
2022-11-06T21:45:14.791Z,37.50
2022-11-06T21:50:29.558Z,43.10
2022-11-06T21:55:57.353Z,36.00
2022-11-06T22:01:07.220Z,35.70
2022-11-06T22:06:16.875Z,38.10
2022-11-06T22:11:26.004Z,38.90
2022-11-06T22:16:36.248Z,37.90
2022-11-06T22:27:24.593Z,40.80
2022-11-06T22:32:32.665Z,37.40
2022-11-06T22:37:40.295Z,36.40
2022-11-06T22:42:50.101Z,34.20
2022-11-06T22:47:58.822Z,35.70
2022-11-06T22:58:11.604Z,39.70
2022-11-06T23:03:19.257Z,38.10
2022-11-06T23:08:27.796Z,44.00
2022-11-06T23:13:35.101Z,38.10
2022-11-06T23:18:42.960Z,38.50
2022-11-06T23:23:49.979Z,35.60
2022-11-06T23:28:59.147Z,35.70
2022-11-06T23:34:06.610Z,33.50
2022-11-06T23:39:15.316Z,37.80
2022-11-06T23:44:39.998Z,37.20
2022-11-06T23:49:48.427Z,33.50
2022-11-06T23:54:55.734Z,39.20
